sensor_id;sensor_type;location;lat;lon;timestamp;P1;durP1;ratioP1;P2;durP2;ratioP2
69246;SDS011;56358;56.328;43.992;2023-03-03T00:01:55;7.60;;;3.40;;
69246;SDS011;56358;56.328;43.992;2023-03-03T00:03:55;7.18;;;2.90;;
69246;SDS011;56358;56.328;43.992;2023-03-03T00:05:56;9.63;;;3.70;;
69246;SDS011;56358;56.328;43.992;2023-03-03T00:07:57;9.20;;;3.55;;
69246;SDS011;56358;56.328;43.992;2023-03-03T00:09:58;6.18;;;3.13;;
69246;SDS011;56358;56.328;43.992;2023-03-03T00:11:59;8.23;;;2.80;;
69246;SDS011;56358;56.328;43.992;2023-03-03T00:14:01;8.55;;;3.60;;
69246;SDS011;56358;56.328;43.992;2023-03-03T00:16:13;5.75;;;3.20;;
69246;SDS011;56358;56.328;43.992;2023-03-03T00:18:35;7.15;;;2.72;;
69246;SDS011;56358;56.328;43.992;2023-03-03T00:20:39;8.50;;;2.38;;
69246;SDS011;56358;56.328;43.992;2023-03-03T00:22:40;9.82;;;2.70;;
69246;SDS011;56358;56.328;43.992;2023-03-03T00:24:41;7.22;;;3.05;;
69246;SDS011;56358;56.328;43.992;2023-03-03T00:26:49;9.00;;;3.55;;
69246;SDS011;56358;56.328;43.992;2023-03-03T00:29:01;10.20;;;3.28;;
69246;SDS011;56358;56.328;43.992;2023-03-03T00:31:19;8.10;;;3.90;;
69246;SDS011;56358;56.328;43.992;2023-03-03T00:33:42;7.78;;;3.38;;
69246;SDS011;56358;56.328;43.992;2023-03-03T00:35:47;6.82;;;2.80;;
69246;SDS011;56358;56.328;43.992;2023-03-03T00:37:48;8.95;;;3.25;;
69246;SDS011;56358;56.328;43.992;2023-03-03T00:42:25;6.68;;;2.90;;
69246;SDS011;56358;56.328;43.992;2023-03-03T00:46:35;5.22;;;2.75;;
69246;SDS011;56358;56.328;43.992;2023-03-03T00:50:37;7.88;;;3.08;;
69246;SDS011;56358;56.328;43.992;2023-03-03T00:52:51;9.70;;;3.50;;
69246;SDS011;56358;56.328;43.992;2023-03-03T00:54:59;5.95;;;2.97;;
69246;SDS011;56358;56.328;43.992;2023-03-03T00:57:00;8.40;;;3.15;;
69246;SDS011;56358;56.328;43.992;2023-03-03T00:59:00;7.25;;;3.00;;
69246;SDS011;56358;56.328;43.992;2023-03-03T01:01:01;6.90;;;2.90;;
69246;SDS011;56358;56.328;43.992;2023-03-03T01:03:05;10.63;;;3.70;;
69246;SDS011;56358;56.328;43.992;2023-03-03T01:05:15;6.75;;;3.25;;
69246;SDS011;56358;56.328;43.992;2023-03-03T01:07:16;6.80;;;3.38;;
69246;SDS011;56358;56.328;43.992;2023-03-03T01:09:17;8.02;;;3.38;;
69246;SDS011;56358;56.328;43.992;2023-03-03T01:11:19;8.32;;;3.40;;
69246;SDS011;56358;56.328;43.992;2023-03-03T01:13:25;7.38;;;3.33;;
69246;SDS011;56358;56.328;43.992;2023-03-03T01:15:27;5.68;;;2.88;;
69246;SDS011;56358;56.328;43.992;2023-03-03T01:17:28;7.82;;;3.35;;
69246;SDS011;56358;56.328;43.992;2023-03-03T01:19:29;6.63;;;2.60;;
69246;SDS011;56358;56.328;43.992;2023-03-03T01:21:29;9.90;;;3.22;;
69246;SDS011;56358;56.328;43.992;2023-03-03T01:23:30;10.57;;;3.47;;
69246;SDS011;56358;56.328;43.992;2023-03-03T01:25:31;7.50;;;3.00;;
69246;SDS011;56358;56.328;43.992;2023-03-03T01:27:32;7.50;;;2.55;;
69246;SDS011;56358;56.328;43.992;2023-03-03T01:29:34;8.05;;;3.88;;
69246;SDS011;56358;56.328;43.992;2023-03-03T01:31:34;8.30;;;3.65;;
69246;SDS011;56358;56.328;43.992;2023-03-03T01:33:35;7.15;;;3.10;;
69246;SDS011;56358;56.328;43.992;2023-03-03T01:35:36;6.88;;;3.05;;
69246;SDS011;56358;56.328;43.992;2023-03-03T01:37:36;11.30;;;3.63;;
69246;SDS011;56358;56.328;43.992;2023-03-03T01:39:37;8.38;;;3.72;;
69246;SDS011;56358;56.328;43.992;2023-03-03T01:41:38;10.38;;;4.00;;
69246;SDS011;56358;56.328;43.992;2023-03-03T01:43:42;6.25;;;3.70;;
69246;SDS011;56358;56.328;43.992;2023-03-03T01:49:51;7.32;;;3.50;;
69246;SDS011;56358;56.328;43.992;2023-03-03T01:51:59;8.55;;;3.28;;
69246;SDS011;56358;56.328;43.992;2023-03-03T01:54:02;8.02;;;3.28;;
69246;SDS011;56358;56.328;43.992;2023-03-03T01:56:06;9.85;;;3.67;;
69246;SDS011;56358;56.328;43.992;2023-03-03T01:58:16;7.32;;;3.40;;
69246;SDS011;56358;56.328;43.992;2023-03-03T02:00:21;8.10;;;3.65;;
69246;SDS011;56358;56.328;43.992;2023-03-03T02:02:21;6.07;;;3.15;;
69246;SDS011;56358;56.328;43.992;2023-03-03T02:04:24;6.97;;;3.55;;
69246;SDS011;56358;56.328;43.992;2023-03-03T02:06:27;10.30;;;3.97;;
69246;SDS011;56358;56.328;43.992;2023-03-03T02:08:37;6.75;;;3.35;;
69246;SDS011;56358;56.328;43.992;2023-03-03T02:10:44;8.00;;;3.47;;
69246;SDS011;56358;56.328;43.992;2023-03-03T02:12:55;10.05;;;4.20;;
69246;SDS011;56358;56.328;43.992;2023-03-03T02:14:57;9.60;;;4.38;;
69246;SDS011;56358;56.328;43.992;2023-03-03T02:16:58;9.60;;;3.78;;
69246;SDS011;56358;56.328;43.992;2023-03-03T02:18:58;6.35;;;3.25;;
69246;SDS011;56358;56.328;43.992;2023-03-03T02:23:12;8.60;;;3.83;;
69246;SDS011;56358;56.328;43.992;2023-03-03T02:25:24;7.07;;;3.27;;
69246;SDS011;56358;56.328;43.992;2023-03-03T02:27:48;7.05;;;3.03;;
69246;SDS011;56358;56.328;43.992;2023-03-03T02:29:49;6.57;;;3.05;;
69246;SDS011;56358;56.328;43.992;2023-03-03T02:31:51;8.07;;;3.33;;
69246;SDS011;56358;56.328;43.992;2023-03-03T02:33:52;6.65;;;2.88;;
69246;SDS011;56358;56.328;43.992;2023-03-03T02:35:54;11.73;;;3.63;;
69246;SDS011;56358;56.328;43.992;2023-03-03T02:37:56;7.20;;;2.83;;
69246;SDS011;56358;56.328;43.992;2023-03-03T02:40:18;8.68;;;3.72;;
69246;SDS011;56358;56.328;43.992;2023-03-03T02:42:25;6.53;;;3.10;;
69246;SDS011;56358;56.328;43.992;2023-03-03T02:44:29;8.68;;;3.40;;
69246;SDS011;56358;56.328;43.992;2023-03-03T02:46:32;6.15;;;3.40;;
69246;SDS011;56358;56.328;43.992;2023-03-03T02:50:34;9.07;;;3.00;;
69246;SDS011;56358;56.328;43.992;2023-03-03T02:52:35;10.07;;;3.72;;
69246;SDS011;56358;56.328;43.992;2023-03-03T02:54:36;8.25;;;3.50;;
69246;SDS011;56358;56.328;43.992;2023-03-03T02:56:37;6.18;;;3.25;;
69246;SDS011;56358;56.328;43.992;2023-03-03T02:58:39;4.10;;;2.15;;
69246;SDS011;56358;56.328;43.992;2023-03-03T03:00:39;10.88;;;3.90;;
69246;SDS011;56358;56.328;43.992;2023-03-03T03:02:40;11.23;;;3.67;;
69246;SDS011;56358;56.328;43.992;2023-03-03T03:04:40;10.13;;;3.90;;
69246;SDS011;56358;56.328;43.992;2023-03-03T03:06:41;6.05;;;3.13;;
69246;SDS011;56358;56.328;43.992;2023-03-03T03:08:43;4.15;;;2.25;;
69246;SDS011;56358;56.328;43.992;2023-03-03T03:10:44;8.02;;;2.97;;
69246;SDS011;56358;56.328;43.992;2023-03-03T03:12:44;10.32;;;4.22;;
69246;SDS011;56358;56.328;43.992;2023-03-03T03:14:45;8.65;;;3.33;;
69246;SDS011;56358;56.328;43.992;2023-03-03T03:16:45;8.50;;;3.15;;
69246;SDS011;56358;56.328;43.992;2023-03-03T03:18:46;6.53;;;3.00;;
69246;SDS011;56358;56.328;43.992;2023-03-03T03:20:47;7.40;;;3.25;;
69246;SDS011;56358;56.328;43.992;2023-03-03T03:22:48;8.05;;;3.85;;
69246;SDS011;56358;56.328;43.992;2023-03-03T03:24:48;7.10;;;2.95;;
69246;SDS011;56358;56.328;43.992;2023-03-03T03:26:49;9.98;;;3.40;;
69246;SDS011;56358;56.328;43.992;2023-03-03T03:28:50;6.97;;;3.10;;
69246;SDS011;56358;56.328;43.992;2023-03-03T03:30:50;8.43;;;3.40;;
69246;SDS011;56358;56.328;43.992;2023-03-03T03:32:51;11.43;;;3.80;;
69246;SDS011;56358;56.328;43.992;2023-03-03T03:34:52;10.27;;;3.65;;
69246;SDS011;56358;56.328;43.992;2023-03-03T03:36:52;5.75;;;2.55;;
69246;SDS011;56358;56.328;43.992;2023-03-03T03:38:53;7.22;;;4.20;;
69246;SDS011;56358;56.328;43.992;2023-03-03T03:40:53;11.52;;;4.00;;
69246;SDS011;56358;56.328;43.992;2023-03-03T03:42:54;9.40;;;3.47;;
69246;SDS011;56358;56.328;43.992;2023-03-03T03:44:55;8.73;;;3.13;;
69246;SDS011;56358;56.328;43.992;2023-03-03T03:46:56;9.50;;;3.80;;
69246;SDS011;56358;56.328;43.992;2023-03-03T03:48:56;8.05;;;3.95;;
69246;SDS011;56358;56.328;43.992;2023-03-03T03:50:57;6.35;;;3.22;;
69246;SDS011;56358;56.328;43.992;2023-03-03T03:52:58;6.45;;;3.20;;
69246;SDS011;56358;56.328;43.992;2023-03-03T03:54:58;10.27;;;3.90;;
69246;SDS011;56358;56.328;43.992;2023-03-03T03:56:59;9.75;;;4.13;;
69246;SDS011;56358;56.328;43.992;2023-03-03T03:59:00;8.95;;;3.55;;
69246;SDS011;56358;56.328;43.992;2023-03-03T04:01:01;12.00;;;3.80;;
69246;SDS011;56358;56.328;43.992;2023-03-03T04:03:04;9.10;;;3.10;;
69246;SDS011;56358;56.328;43.992;2023-03-03T04:05:04;10.52;;;3.67;;
69246;SDS011;56358;56.328;43.992;2023-03-03T04:07:06;6.80;;;3.58;;
69246;SDS011;56358;56.328;43.992;2023-03-03T04:09:07;6.72;;;3.58;;
69246;SDS011;56358;56.328;43.992;2023-03-03T04:11:07;12.30;;;3.67;;
69246;SDS011;56358;56.328;43.992;2023-03-03T04:13:08;9.90;;;4.07;;
69246;SDS011;56358;56.328;43.992;2023-03-03T04:15:09;8.80;;;3.35;;
69246;SDS011;56358;56.328;43.992;2023-03-03T04:17:15;9.38;;;3.63;;
69246;SDS011;56358;56.328;43.992;2023-03-03T04:19:20;11.02;;;3.67;;
69246;SDS011;56358;56.328;43.992;2023-03-03T04:21:21;8.95;;;4.00;;
69246;SDS011;56358;56.328;43.992;2023-03-03T04:23:22;12.32;;;4.03;;
69246;SDS011;56358;56.328;43.992;2023-03-03T04:25:22;9.73;;;4.10;;
69246;SDS011;56358;56.328;43.992;2023-03-03T04:27:23;9.25;;;3.97;;
69246;SDS011;56358;56.328;43.992;2023-03-03T04:29:24;6.65;;;3.53;;
69246;SDS011;56358;56.328;43.992;2023-03-03T04:31:24;9.00;;;4.00;;
69246;SDS011;56358;56.328;43.992;2023-03-03T04:33:25;7.40;;;3.20;;
69246;SDS011;56358;56.328;43.992;2023-03-03T04:35:26;9.73;;;4.10;;
69246;SDS011;56358;56.328;43.992;2023-03-03T04:37:26;6.28;;;3.72;;
69246;SDS011;56358;56.328;43.992;2023-03-03T04:39:27;11.07;;;3.92;;
69246;SDS011;56358;56.328;43.992;2023-03-03T04:41:28;12.48;;;4.15;;
69246;SDS011;56358;56.328;43.992;2023-03-03T04:43:29;11.75;;;4.03;;
69246;SDS011;56358;56.328;43.992;2023-03-03T04:45:30;7.97;;;3.53;;
69246;SDS011;56358;56.328;43.992;2023-03-03T04:47:31;7.88;;;3.45;;
69246;SDS011;56358;56.328;43.992;2023-03-03T04:49:32;9.75;;;3.70;;
69246;SDS011;56358;56.328;43.992;2023-03-03T04:51:32;10.13;;;4.57;;
69246;SDS011;56358;56.328;43.992;2023-03-03T04:53:33;5.72;;;3.50;;
69246;SDS011;56358;56.328;43.992;2023-03-03T04:55:36;7.97;;;3.72;;
69246;SDS011;56358;56.328;43.992;2023-03-03T04:57:37;8.48;;;4.45;;
69246;SDS011;56358;56.328;43.992;2023-03-03T04:59:38;9.50;;;4.50;;
69246;SDS011;56358;56.328;43.992;2023-03-03T05:01:38;12.55;;;4.78;;
69246;SDS011;56358;56.328;43.992;2023-03-03T05:03:39;9.00;;;3.95;;
69246;SDS011;56358;56.328;43.992;2023-03-03T05:05:40;11.57;;;4.50;;
69246;SDS011;56358;56.328;43.992;2023-03-03T05:07:41;8.57;;;3.88;;
69246;SDS011;56358;56.328;43.992;2023-03-03T05:09:41;12.93;;;4.72;;
69246;SDS011;56358;56.328;43.992;2023-03-03T05:11:42;9.13;;;3.92;;
69246;SDS011;56358;56.328;43.992;2023-03-03T05:13:43;8.20;;;3.65;;
69246;SDS011;56358;56.328;43.992;2023-03-03T05:15:47;8.90;;;3.63;;
69246;SDS011;56358;56.328;43.992;2023-03-03T05:17:51;11.90;;;3.75;;
69246;SDS011;56358;56.328;43.992;2023-03-03T05:19:52;14.60;;;4.32;;
69246;SDS011;56358;56.328;43.992;2023-03-03T05:21:53;8.07;;;3.55;;
69246;SDS011;56358;56.328;43.992;2023-03-03T05:23:53;13.55;;;3.90;;
69246;SDS011;56358;56.328;43.992;2023-03-03T05:25:54;12.50;;;4.53;;
69246;SDS011;56358;56.328;43.992;2023-03-03T05:27:55;8.30;;;3.60;;
69246;SDS011;56358;56.328;43.992;2023-03-03T05:29:55;7.72;;;3.67;;
69246;SDS011;56358;56.328;43.992;2023-03-03T05:31:56;10.07;;;4.40;;
69246;SDS011;56358;56.328;43.992;2023-03-03T05:33:57;8.85;;;3.78;;
69246;SDS011;56358;56.328;43.992;2023-03-03T05:35:58;11.18;;;4.38;;
69246;SDS011;56358;56.328;43.992;2023-03-03T05:37:59;9.02;;;4.28;;
69246;SDS011;56358;56.328;43.992;2023-03-03T05:40:00;9.75;;;4.68;;
69246;SDS011;56358;56.328;43.992;2023-03-03T05:42:00;11.63;;;4.20;;
69246;SDS011;56358;56.328;43.992;2023-03-03T05:44:01;9.35;;;4.03;;
69246;SDS011;56358;56.328;43.992;2023-03-03T05:46:03;11.68;;;4.40;;
69246;SDS011;56358;56.328;43.992;2023-03-03T05:48:04;10.20;;;4.43;;
69246;SDS011;56358;56.328;43.992;2023-03-03T05:50:05;10.10;;;3.92;;
69246;SDS011;56358;56.328;43.992;2023-03-03T05:52:05;11.52;;;4.53;;
69246;SDS011;56358;56.328;43.992;2023-03-03T05:54:08;13.87;;;4.90;;
69246;SDS011;56358;56.328;43.992;2023-03-03T05:56:09;11.80;;;5.13;;
69246;SDS011;56358;56.328;43.992;2023-03-03T05:58:09;9.50;;;4.47;;
69246;SDS011;56358;56.328;43.992;2023-03-03T06:00:11;11.93;;;5.50;;
69246;SDS011;56358;56.328;43.992;2023-03-03T06:02:13;10.82;;;4.22;;
69246;SDS011;56358;56.328;43.992;2023-03-03T06:04:14;9.38;;;4.47;;
69246;SDS011;56358;56.328;43.992;2023-03-03T06:06:14;11.90;;;4.45;;
69246;SDS011;56358;56.328;43.992;2023-03-03T06:08:16;11.70;;;5.00;;
69246;SDS011;56358;56.328;43.992;2023-03-03T06:10:16;9.93;;;4.57;;
69246;SDS011;56358;56.328;43.992;2023-03-03T06:12:17;10.52;;;4.97;;
69246;SDS011;56358;56.328;43.992;2023-03-03T06:14:19;10.52;;;4.97;;
69246;SDS011;56358;56.328;43.992;2023-03-03T06:16:20;14.05;;;5.07;;
69246;SDS011;56358;56.328;43.992;2023-03-03T06:18:20;17.92;;;5.47;;
69246;SDS011;56358;56.328;43.992;2023-03-03T06:20:21;9.93;;;4.53;;
69246;SDS011;56358;56.328;43.992;2023-03-03T06:22:22;10.50;;;4.88;;
69246;SDS011;56358;56.328;43.992;2023-03-03T06:24:23;13.52;;;4.68;;
69246;SDS011;56358;56.328;43.992;2023-03-03T06:26:25;9.73;;;4.88;;
69246;SDS011;56358;56.328;43.992;2023-03-03T06:28:26;16.70;;;6.57;;
69246;SDS011;56358;56.328;43.992;2023-03-03T06:30:27;13.25;;;5.63;;
69246;SDS011;56358;56.328;43.992;2023-03-03T06:32:29;12.40;;;5.78;;
69246;SDS011;56358;56.328;43.992;2023-03-03T06:34:30;13.07;;;5.47;;
69246;SDS011;56358;56.328;43.992;2023-03-03T06:36:30;11.32;;;5.30;;
69246;SDS011;56358;56.328;43.992;2023-03-03T06:38:31;17.17;;;5.22;;
69246;SDS011;56358;56.328;43.992;2023-03-03T06:40:32;14.77;;;5.60;;
69246;SDS011;56358;56.328;43.992;2023-03-03T06:42:32;14.05;;;4.10;;
69246;SDS011;56358;56.328;43.992;2023-03-03T06:44:33;14.07;;;5.65;;
69246;SDS011;56358;56.328;43.992;2023-03-03T06:46:34;12.23;;;5.05;;
69246;SDS011;56358;56.328;43.992;2023-03-03T06:48:34;15.70;;;5.22;;
69246;SDS011;56358;56.328;43.992;2023-03-03T06:50:35;12.60;;;4.78;;
69246;SDS011;56358;56.328;43.992;2023-03-03T06:52:36;15.15;;;5.15;;
69246;SDS011;56358;56.328;43.992;2023-03-03T06:54:36;14.02;;;4.45;;
69246;SDS011;56358;56.328;43.992;2023-03-03T06:56:37;12.73;;;5.00;;
69246;SDS011;56358;56.328;43.992;2023-03-03T06:58:39;14.07;;;5.63;;
69246;SDS011;56358;56.328;43.992;2023-03-03T07:00:40;17.38;;;4.72;;
69246;SDS011;56358;56.328;43.992;2023-03-03T07:02:43;10.75;;;5.05;;
69246;SDS011;56358;56.328;43.992;2023-03-03T07:04:44;10.02;;;4.93;;
69246;SDS011;56358;56.328;43.992;2023-03-03T07:06:47;15.65;;;5.47;;
69246;SDS011;56358;56.328;43.992;2023-03-03T07:08:48;13.95;;;5.93;;
69246;SDS011;56358;56.328;43.992;2023-03-03T07:10:50;10.38;;;5.57;;
69246;SDS011;56358;56.328;43.992;2023-03-03T07:12:52;13.40;;;5.53;;
69246;SDS011;56358;56.328;43.992;2023-03-03T07:17:16;15.07;;;5.95;;
69246;SDS011;56358;56.328;43.992;2023-03-03T07:19:19;9.95;;;4.88;;
69246;SDS011;56358;56.328;43.992;2023-03-03T07:21:34;19.55;;;5.45;;
69246;SDS011;56358;56.328;43.992;2023-03-03T07:25:43;14.10;;;5.78;;
69246;SDS011;56358;56.328;43.992;2023-03-03T07:27:45;14.13;;;5.80;;
69246;SDS011;56358;56.328;43.992;2023-03-03T07:29:47;12.20;;;6.65;;
69246;SDS011;56358;56.328;43.992;2023-03-03T07:31:49;14.68;;;5.55;;
69246;SDS011;56358;56.328;43.992;2023-03-03T07:33:51;13.85;;;5.40;;
69246;SDS011;56358;56.328;43.992;2023-03-03T07:35:53;11.23;;;5.15;;
69246;SDS011;56358;56.328;43.992;2023-03-03T07:37:55;13.88;;;5.50;;
69246;SDS011;56358;56.328;43.992;2023-03-03T07:39:55;12.38;;;5.53;;
69246;SDS011;56358;56.328;43.992;2023-03-03T07:44:21;9.93;;;5.00;;
69246;SDS011;56358;56.328;43.992;2023-03-03T07:46:35;11.57;;;5.75;;
69246;SDS011;56358;56.328;43.992;2023-03-03T07:48:42;10.73;;;4.72;;
69246;SDS011;56358;56.328;43.992;2023-03-03T07:50:43;11.63;;;5.65;;
69246;SDS011;56358;56.328;43.992;2023-03-03T07:52:50;15.93;;;6.18;;
69246;SDS011;56358;56.328;43.992;2023-03-03T07:54:56;14.43;;;6.28;;
69246;SDS011;56358;56.328;43.992;2023-03-03T07:59:25;11.23;;;4.95;;
69246;SDS011;56358;56.328;43.992;2023-03-03T08:03:29;12.40;;;5.60;;
69246;SDS011;56358;56.328;43.992;2023-03-03T08:05:41;11.52;;;5.55;;
69246;SDS011;56358;56.328;43.992;2023-03-03T08:07:43;14.55;;;5.78;;
69246;SDS011;56358;56.328;43.992;2023-03-03T08:11:57;13.43;;;4.95;;
69246;SDS011;56358;56.328;43.992;2023-03-03T08:14:10;15.68;;;5.85;;
69246;SDS011;56358;56.328;43.992;2023-03-03T08:16:33;12.35;;;5.95;;
69246;SDS011;56358;56.328;43.992;2023-03-03T08:21:07;10.05;;;5.40;;
69246;SDS011;56358;56.328;43.992;2023-03-03T08:23:12;11.18;;;4.72;;
69246;SDS011;56358;56.328;43.992;2023-03-03T08:25:14;15.40;;;6.03;;
69246;SDS011;56358;56.328;43.992;2023-03-03T08:27:14;19.05;;;7.03;;
69246;SDS011;56358;56.328;43.992;2023-03-03T08:29:15;14.68;;;6.50;;
69246;SDS011;56358;56.328;43.992;2023-03-03T08:31:16;14.43;;;6.82;;
69246;SDS011;56358;56.328;43.992;2023-03-03T08:33:17;19.38;;;6.93;;
69246;SDS011;56358;56.328;43.992;2023-03-03T08:35:18;14.50;;;7.05;;
69246;SDS011;56358;56.328;43.992;2023-03-03T08:37:18;15.18;;;7.05;;
69246;SDS011;56358;56.328;43.992;2023-03-03T08:39:19;13.75;;;6.05;;
69246;SDS011;56358;56.328;43.992;2023-03-03T08:41:20;14.27;;;5.43;;
69246;SDS011;56358;56.328;43.992;2023-03-03T08:43:20;12.43;;;5.20;;
69246;SDS011;56358;56.328;43.992;2023-03-03T08:45:21;13.95;;;5.75;;
69246;SDS011;56358;56.328;43.992;2023-03-03T08:47:22;11.15;;;5.60;;
69246;SDS011;56358;56.328;43.992;2023-03-03T08:49:23;14.40;;;5.68;;
69246;SDS011;56358;56.328;43.992;2023-03-03T08:51:24;14.23;;;5.90;;
69246;SDS011;56358;56.328;43.992;2023-03-03T08:53:25;19.67;;;6.97;;
69246;SDS011;56358;56.328;43.992;2023-03-03T08:55:27;20.60;;;7.90;;
69246;SDS011;56358;56.328;43.992;2023-03-03T08:57:27;21.83;;;7.75;;
69246;SDS011;56358;56.328;43.992;2023-03-03T08:59:28;16.77;;;5.70;;
69246;SDS011;56358;56.328;43.992;2023-03-03T09:01:30;15.50;;;6.25;;
69246;SDS011;56358;56.328;43.992;2023-03-03T09:03:31;11.30;;;5.27;;
69246;SDS011;56358;56.328;43.992;2023-03-03T09:05:32;13.65;;;4.70;;
69246;SDS011;56358;56.328;43.992;2023-03-03T09:07:34;12.30;;;4.43;;
69246;SDS011;56358;56.328;43.992;2023-03-03T09:09:34;19.42;;;6.18;;
69246;SDS011;56358;56.328;43.992;2023-03-03T09:11:36;11.45;;;5.03;;
69246;SDS011;56358;56.328;43.992;2023-03-03T09:13:37;11.73;;;5.05;;
69246;SDS011;56358;56.328;43.992;2023-03-03T09:15:38;10.85;;;4.35;;
69246;SDS011;56358;56.328;43.992;2023-03-03T09:17:39;9.98;;;4.93;;
69246;SDS011;56358;56.328;43.992;2023-03-03T09:19:40;12.98;;;4.20;;
69246;SDS011;56358;56.328;43.992;2023-03-03T09:21:40;8.75;;;4.15;;
69246;SDS011;56358;56.328;43.992;2023-03-03T09:23:41;8.30;;;4.15;;
69246;SDS011;56358;56.328;43.992;2023-03-03T09:25:47;10.63;;;4.32;;
69246;SDS011;56358;56.328;43.992;2023-03-03T09:27:48;9.57;;;4.30;;
69246;SDS011;56358;56.328;43.992;2023-03-03T09:29:53;10.20;;;3.80;;
69246;SDS011;56358;56.328;43.992;2023-03-03T09:31:58;7.40;;;3.40;;
69246;SDS011;56358;56.328;43.992;2023-03-03T09:34:01;8.93;;;4.85;;
69246;SDS011;56358;56.328;43.992;2023-03-03T09:36:26;9.15;;;4.55;;
69246;SDS011;56358;56.328;43.992;2023-03-03T09:38:29;15.18;;;5.15;;
69246;SDS011;56358;56.328;43.992;2023-03-03T09:42:48;5.93;;;3.58;;
69246;SDS011;56358;56.328;43.992;2023-03-03T09:51:26;9.68;;;3.78;;
69246;SDS011;56358;56.328;43.992;2023-03-03T09:56:02;9.98;;;4.20;;
69246;SDS011;56358;56.328;43.992;2023-03-03T10:03:36;13.05;;;4.22;;
69246;SDS011;56358;56.328;43.992;2023-03-03T10:08:09;12.00;;;4.53;;
69246;SDS011;56358;56.328;43.992;2023-03-03T10:15:22;7.85;;;3.50;;
69246;SDS011;56358;56.328;43.992;2023-03-03T10:24:27;7.45;;;3.63;;
69246;SDS011;56358;56.328;43.992;2023-03-03T10:33:25;5.00;;;2.75;;
69246;SDS011;56358;56.328;43.992;2023-03-03T10:40:33;8.70;;;3.28;;
69246;SDS011;56358;56.328;43.992;2023-03-03T10:43:02;7.80;;;3.30;;
69246;SDS011;56358;56.328;43.992;2023-03-03T10:52:43;10.45;;;4.40;;
69246;SDS011;56358;56.328;43.992;2023-03-03T11:04:43;5.45;;;2.60;;
69246;SDS011;56358;56.328;43.992;2023-03-03T11:12:18;6.57;;;2.63;;
69246;SDS011;56358;56.328;43.992;2023-03-03T11:14:44;6.45;;;2.88;;
69246;SDS011;56358;56.328;43.992;2023-03-03T11:19:07;5.13;;;2.38;;
69246;SDS011;56358;56.328;43.992;2023-03-03T11:21:18;6.50;;;2.25;;
69246;SDS011;56358;56.328;43.992;2023-03-03T11:23:57;10.00;;;3.30;;
69246;SDS011;56358;56.328;43.992;2023-03-03T11:26:17;9.75;;;2.63;;
69246;SDS011;56358;56.328;43.992;2023-03-03T11:28:29;8.70;;;2.72;;
69246;SDS011;56358;56.328;43.992;2023-03-03T11:35:21;7.57;;;3.00;;
69246;SDS011;56358;56.328;43.992;2023-03-03T11:39:49;6.70;;;2.22;;
69246;SDS011;56358;56.328;43.992;2023-03-03T11:42:14;7.15;;;2.95;;
69246;SDS011;56358;56.328;43.992;2023-03-03T11:44:36;6.05;;;2.53;;
69246;SDS011;56358;56.328;43.992;2023-03-03T11:55:19;6.00;;;2.08;;
69246;SDS011;56358;56.328;43.992;2023-03-03T11:57:34;7.53;;;2.38;;
69246;SDS011;56358;56.328;43.992;2023-03-03T11:59:43;7.55;;;2.50;;
69246;SDS011;56358;56.328;43.992;2023-03-03T12:01:53;5.85;;;2.20;;
69246;SDS011;56358;56.328;43.992;2023-03-03T12:08:26;8.60;;;2.85;;
69246;SDS011;56358;56.328;43.992;2023-03-03T12:12:37;7.45;;;2.45;;
69246;SDS011;56358;56.328;43.992;2023-03-03T12:16:59;7.03;;;2.58;;
69246;SDS011;56358;56.328;43.992;2023-03-03T12:19:13;7.50;;;2.03;;
69246;SDS011;56358;56.328;43.992;2023-03-03T12:23:36;4.80;;;2.08;;
69246;SDS011;56358;56.328;43.992;2023-03-03T12:35:05;5.95;;;2.40;;
69246;SDS011;56358;56.328;43.992;2023-03-03T12:37:22;8.93;;;2.60;;
69246;SDS011;56358;56.328;43.992;2023-03-03T12:39:52;9.25;;;3.00;;
69246;SDS011;56358;56.328;43.992;2023-03-03T12:44:40;6.15;;;2.72;;
69246;SDS011;56358;56.328;43.992;2023-03-03T12:49:01;7.20;;;2.40;;
69246;SDS011;56358;56.328;43.992;2023-03-03T12:57:55;7.47;;;3.20;;
69246;SDS011;56358;56.328;43.992;2023-03-03T13:00:45;9.43;;;3.20;;
69246;SDS011;56358;56.328;43.992;2023-03-03T13:02:37;6.95;;;2.95;;
69246;SDS011;56358;56.328;43.992;2023-03-03T13:12:10;5.95;;;2.97;;
69246;SDS011;56358;56.328;43.992;2023-03-03T13:14:32;4.82;;;2.30;;
69246;SDS011;56358;56.328;43.992;2023-03-03T13:16:43;10.32;;;3.78;;
69246;SDS011;56358;56.328;43.992;2023-03-03T13:25:43;8.50;;;3.88;;
69246;SDS011;56358;56.328;43.992;2023-03-03T13:27:51;8.98;;;3.78;;
69246;SDS011;56358;56.328;43.992;2023-03-03T13:30:03;10.73;;;4.55;;
69246;SDS011;56358;56.328;43.992;2023-03-03T13:32:22;11.25;;;4.60;;
69246;SDS011;56358;56.328;43.992;2023-03-03T13:37:02;9.57;;;4.85;;
69246;SDS011;56358;56.328;43.992;2023-03-03T13:39:16;11.70;;;4.97;;
69246;SDS011;56358;56.328;43.992;2023-03-03T13:43:34;12.80;;;4.93;;
69246;SDS011;56358;56.328;43.992;2023-03-03T13:50:48;13.05;;;5.40;;
69246;SDS011;56358;56.328;43.992;2023-03-03T13:52:31;11.88;;;5.45;;
69246;SDS011;56358;56.328;43.992;2023-03-03T13:54:50;11.00;;;5.40;;
69246;SDS011;56358;56.328;43.992;2023-03-03T14:06:31;17.00;;;6.00;;
69246;SDS011;56358;56.328;43.992;2023-03-03T14:13:48;11.45;;;5.00;;
69246;SDS011;56358;56.328;43.992;2023-03-03T14:16:02;8.88;;;4.47;;
69246;SDS011;56358;56.328;43.992;2023-03-03T14:18:23;9.75;;;4.63;;
69246;SDS011;56358;56.328;43.992;2023-03-03T14:20:31;11.15;;;4.65;;
69246;SDS011;56358;56.328;43.992;2023-03-03T14:22:50;12.50;;;4.93;;
69246;SDS011;56358;56.328;43.992;2023-03-03T14:24:55;10.02;;;4.75;;
69246;SDS011;56358;56.328;43.992;2023-03-03T14:27:03;13.77;;;5.13;;
69246;SDS011;56358;56.328;43.992;2023-03-03T14:31:28;12.50;;;5.28;;
69246;SDS011;56358;56.328;43.992;2023-03-03T14:33:44;11.90;;;5.80;;
69246;SDS011;56358;56.328;43.992;2023-03-03T14:38:14;15.30;;;5.63;;
69246;SDS011;56358;56.328;43.992;2023-03-03T14:40:20;13.85;;;5.47;;
69246;SDS011;56358;56.328;43.992;2023-03-03T14:44:54;17.15;;;7.28;;
69246;SDS011;56358;56.328;43.992;2023-03-03T14:47:19;12.50;;;4.88;;
69246;SDS011;56358;56.328;43.992;2023-03-03T14:49:28;14.05;;;4.43;;
69246;SDS011;56358;56.328;43.992;2023-03-03T14:51:46;10.63;;;4.28;;
69246;SDS011;56358;56.328;43.992;2023-03-03T14:53:48;9.75;;;4.65;;
69246;SDS011;56358;56.328;43.992;2023-03-03T14:55:51;13.23;;;4.05;;
69246;SDS011;56358;56.328;43.992;2023-03-03T14:57:53;8.60;;;3.75;;
69246;SDS011;56358;56.328;43.992;2023-03-03T14:59:57;9.48;;;4.45;;
69246;SDS011;56358;56.328;43.992;2023-03-03T15:06:27;9.15;;;4.13;;
69246;SDS011;56358;56.328;43.992;2023-03-03T15:08:31;10.60;;;4.13;;
69246;SDS011;56358;56.328;43.992;2023-03-03T15:10:34;10.30;;;4.60;;
69246;SDS011;56358;56.328;43.992;2023-03-03T15:12:39;9.48;;;4.32;;
69246;SDS011;56358;56.328;43.992;2023-03-03T15:14:43;9.65;;;4.30;;
69246;SDS011;56358;56.328;43.992;2023-03-03T15:16:46;11.10;;;4.28;;
69246;SDS011;56358;56.328;43.992;2023-03-03T15:21:17;7.85;;;3.80;;
69246;SDS011;56358;56.328;43.992;2023-03-03T15:25:43;11.77;;;4.60;;
69246;SDS011;56358;56.328;43.992;2023-03-03T15:30:23;10.02;;;4.38;;
69246;SDS011;56358;56.328;43.992;2023-03-03T15:33:16;9.93;;;3.78;;
69246;SDS011;56358;56.328;43.992;2023-03-03T15:44:05;11.77;;;4.47;;
69246;SDS011;56358;56.328;43.992;2023-03-03T15:46:26;9.85;;;4.30;;
69246;SDS011;56358;56.328;43.992;2023-03-03T15:51:32;11.40;;;3.83;;